Portada
METAR-TAF:

METAR-TAF

Aeroports :

Aeroport d'Auckland

Auckland, Nova Zelanda

latitud: 37-01S, longitud: 174-48E, altitud: 7 m

Observació

L'informe es va fer fa 44 minuts, a les 17:30 UTC
Vent 3 kt del Sud/Sud-Est
Temperatura 11°C
Humitat 82%
Pressió 1013 hPa
Visibilitat 10 km o més

METAR: NZAA 101730Z AUTO 16003KT 9999 NCD 11/08 Q1013 NOSIG

Hora: 07:14 (18:14 UTC)

Pronòstic

L'informe es va fer fa 1 hora i 12 minuts, a les 17:02 UTC
Pronòstic vàlid del 10 a les 18 UTC al 11 a les 18 UTC
Vent 5 kt del Sud/Sud-Est
Visibilitat 10 km o més
Escasses núvols a una alçada de 4000 ft
Evolucionant progressivament
l' 10 a les 22 UTC al 11 a les 00 UTC
Vent 15 kt del Sud-Oest
Evolucionant progressivament
l' 11 a les 10 UTC al 11 a les 12 UTC
Vent 5 kt del Sud-Oest

TAF: NZAA 101702Z 1018/1118 16005KT 9999 FEW040 BECMG 1022/1100 22015KT BECMG 1110/1112 22005KT

Observacions i pronòstics meteorològics de més de 4000 aeroports (METAR i TAF).

Les estacions disponibles són els punts grocs i vermells al mapa.

Posi el ratolí al punt desitjat per veure el nom de l'estació.

Feu clic per veure les observacions i els pronòstics meteorològics.

Per canviar el mapa: feu clic els botons verds amb una creu de color negre per apropar; al botó verd amb un guió per allunyar la imatge; o en les fletxes verdes per a mapes adjacents.


METAR-TAF: